sensor_id;sensor_type;location;lat;lon;timestamp;P1;durP1;ratioP1;P2;durP2;ratioP2
10894;SDS011;5500;49.886;8.074;2022-10-13T00:01:11;21.10;;;14.10;;
10894;SDS011;5500;49.886;8.074;2022-10-13T00:03:40;18.37;;;13.57;;
10894;SDS011;5500;49.886;8.074;2022-10-13T00:06:11;21.83;;;13.77;;
10894;SDS011;5500;49.886;8.074;2022-10-13T00:08:41;19.97;;;13.90;;
10894;SDS011;5500;49.886;8.074;2022-10-13T00:11:12;20.97;;;14.07;;
10894;SDS011;5500;49.886;8.074;2022-10-13T00:13:43;21.57;;;14.00;;
10894;SDS011;5500;49.886;8.074;2022-10-13T00:16:11;18.20;;;13.73;;
10894;SDS011;5500;49.886;8.074;2022-10-13T00:18:40;21.77;;;12.73;;
10894;SDS011;5500;49.886;8.074;2022-10-13T00:21:09;20.93;;;14.10;;
10894;SDS011;5500;49.886;8.074;2022-10-13T00:23:39;21.63;;;13.43;;
10894;SDS011;5500;49.886;8.074;2022-10-13T00:26:07;23.30;;;14.53;;
10894;SDS011;5500;49.886;8.074;2022-10-13T00:28:37;24.97;;;13.00;;
10894;SDS011;5500;49.886;8.074;2022-10-13T00:31:13;18.43;;;12.80;;
10894;SDS011;5500;49.886;8.074;2022-10-13T00:33:41;25.57;;;13.93;;
10894;SDS011;5500;49.886;8.074;2022-10-13T00:36:08;19.37;;;13.23;;
10894;SDS011;5500;49.886;8.074;2022-10-13T00:38:36;18.60;;;13.23;;
10894;SDS011;5500;49.886;8.074;2022-10-13T00:41:04;19.17;;;12.70;;
10894;SDS011;5500;49.886;8.074;2022-10-13T00:43:50;23.93;;;13.60;;
10894;SDS011;5500;49.886;8.074;2022-10-13T00:46:20;21.20;;;13.20;;
10894;SDS011;5500;49.886;8.074;2022-10-13T00:48:48;26.07;;;14.47;;
10894;SDS011;5500;49.886;8.074;2022-10-13T00:51:18;23.97;;;13.87;;
10894;SDS011;5500;49.886;8.074;2022-10-13T00:53:47;18.63;;;13.57;;
10894;SDS011;5500;49.886;8.074;2022-10-13T00:56:16;22.10;;;13.80;;
10894;SDS011;5500;49.886;8.074;2022-10-13T00:58:45;23.23;;;13.70;;
10894;SDS011;5500;49.886;8.074;2022-10-13T01:01:14;20.87;;;12.77;;
10894;SDS011;5500;49.886;8.074;2022-10-13T01:03:42;19.87;;;13.00;;
10894;SDS011;5500;49.886;8.074;2022-10-13T01:06:10;17.13;;;12.83;;
10894;SDS011;5500;49.886;8.074;2022-10-13T01:08:39;17.60;;;13.13;;
10894;SDS011;5500;49.886;8.074;2022-10-13T01:14:00;18.63;;;12.77;;
10894;SDS011;5500;49.886;8.074;2022-10-13T01:16:36;19.50;;;13.10;;
10894;SDS011;5500;49.886;8.074;2022-10-13T01:19:11;16.30;;;11.53;;
10894;SDS011;5500;49.886;8.074;2022-10-13T01:21:51;20.90;;;13.13;;
10894;SDS011;5500;49.886;8.074;2022-10-13T01:24:38;19.23;;;13.77;;
10894;SDS011;5500;49.886;8.074;2022-10-13T01:27:18;20.27;;;12.87;;
10894;SDS011;5500;49.886;8.074;2022-10-13T01:30:08;20.70;;;13.70;;
10894;SDS011;5500;49.886;8.074;2022-10-13T01:32:42;17.73;;;13.63;;
10894;SDS011;5500;49.886;8.074;2022-10-13T01:35:22;20.47;;;13.50;;
10894;SDS011;5500;49.886;8.074;2022-10-13T01:37:54;17.97;;;13.10;;
10894;SDS011;5500;49.886;8.074;2022-10-13T01:40:27;14.27;;;12.30;;
10894;SDS011;5500;49.886;8.074;2022-10-13T01:43:00;14.37;;;11.67;;
10894;SDS011;5500;49.886;8.074;2022-10-13T01:45:33;14.07;;;11.87;;
10894;SDS011;5500;49.886;8.074;2022-10-13T01:48:03;13.97;;;10.87;;
10894;SDS011;5500;49.886;8.074;2022-10-13T01:50:32;16.00;;;10.70;;
10894;SDS011;5500;49.886;8.074;2022-10-13T01:53:00;15.30;;;10.77;;
10894;SDS011;5500;49.886;8.074;2022-10-13T01:55:30;13.23;;;10.93;;
10894;SDS011;5500;49.886;8.074;2022-10-13T01:57:57;14.37;;;10.43;;
10894;SDS011;5500;49.886;8.074;2022-10-13T02:00:25;13.40;;;10.07;;
10894;SDS011;5500;49.886;8.074;2022-10-13T02:02:57;13.80;;;10.17;;
10894;SDS011;5500;49.886;8.074;2022-10-13T02:05:32;14.13;;;10.83;;
10894;SDS011;5500;49.886;8.074;2022-10-13T02:08:07;14.97;;;10.67;;
10894;SDS011;5500;49.886;8.074;2022-10-13T02:10:38;16.13;;;11.37;;
10894;SDS011;5500;49.886;8.074;2022-10-13T02:13:09;17.77;;;11.20;;
10894;SDS011;5500;49.886;8.074;2022-10-13T02:15:39;12.33;;;10.67;;
10894;SDS011;5500;49.886;8.074;2022-10-13T02:18:09;11.30;;;9.47;;
10894;SDS011;5500;49.886;8.074;2022-10-13T02:20:38;11.93;;;9.87;;
10894;SDS011;5500;49.886;8.074;2022-10-13T02:23:08;11.33;;;9.43;;
10894;SDS011;5500;49.886;8.074;2022-10-13T02:25:38;13.60;;;10.00;;
10894;SDS011;5500;49.886;8.074;2022-10-13T02:28:05;12.60;;;10.03;;
10894;SDS011;5500;49.886;8.074;2022-10-13T02:30:34;14.40;;;11.40;;
10894;SDS011;5500;49.886;8.074;2022-10-13T02:33:02;17.67;;;12.20;;
10894;SDS011;5500;49.886;8.074;2022-10-13T02:35:31;15.93;;;12.50;;
10894;SDS011;5500;49.886;8.074;2022-10-13T02:37:58;16.43;;;12.17;;
10894;SDS011;5500;49.886;8.074;2022-10-13T02:40:26;16.90;;;12.07;;
10894;SDS011;5500;49.886;8.074;2022-10-13T02:42:54;14.17;;;11.33;;
10894;SDS011;5500;49.886;8.074;2022-10-13T02:45:22;17.53;;;12.53;;
10894;SDS011;5500;49.886;8.074;2022-10-13T02:47:49;19.60;;;13.87;;
10894;SDS011;5500;49.886;8.074;2022-10-13T02:50:17;16.73;;;12.93;;
10894;SDS011;5500;49.886;8.074;2022-10-13T02:52:46;22.57;;;13.50;;
10894;SDS011;5500;49.886;8.074;2022-10-13T02:55:13;20.57;;;13.47;;
10894;SDS011;5500;49.886;8.074;2022-10-13T02:57:41;20.23;;;13.80;;
10894;SDS011;5500;49.886;8.074;2022-10-13T03:00:09;21.57;;;13.90;;
10894;SDS011;5500;49.886;8.074;2022-10-13T03:02:37;17.33;;;13.90;;
10894;SDS011;5500;49.886;8.074;2022-10-13T03:05:05;23.97;;;14.00;;
10894;SDS011;5500;49.886;8.074;2022-10-13T03:07:33;20.93;;;14.03;;
10894;SDS011;5500;49.886;8.074;2022-10-13T03:10:02;22.20;;;13.90;;
10894;SDS011;5500;49.886;8.074;2022-10-13T03:12:31;19.10;;;13.57;;
10894;SDS011;5500;49.886;8.074;2022-10-13T03:14:58;20.23;;;13.87;;
10894;SDS011;5500;49.886;8.074;2022-10-13T03:17:26;21.90;;;13.97;;
10894;SDS011;5500;49.886;8.074;2022-10-13T03:19:53;15.40;;;12.83;;
10894;SDS011;5500;49.886;8.074;2022-10-13T03:22:21;21.97;;;14.67;;
10894;SDS011;5500;49.886;8.074;2022-10-13T03:24:48;21.23;;;14.07;;
10894;SDS011;5500;49.886;8.074;2022-10-13T03:27:18;19.33;;;13.00;;
10894;SDS011;5500;49.886;8.074;2022-10-13T03:29:46;18.37;;;13.37;;
10894;SDS011;5500;49.886;8.074;2022-10-13T03:32:13;19.27;;;14.07;;
10894;SDS011;5500;49.886;8.074;2022-10-13T03:34:41;21.47;;;14.67;;
10894;SDS011;5500;49.886;8.074;2022-10-13T03:37:09;20.90;;;14.57;;
10894;SDS011;5500;49.886;8.074;2022-10-13T03:39:36;22.13;;;15.63;;
10894;SDS011;5500;49.886;8.074;2022-10-13T03:42:04;21.97;;;15.80;;
10894;SDS011;5500;49.886;8.074;2022-10-13T03:44:33;23.90;;;14.97;;
10894;SDS011;5500;49.886;8.074;2022-10-13T03:47:01;22.37;;;14.93;;
10894;SDS011;5500;49.886;8.074;2022-10-13T03:49:29;21.70;;;15.30;;
10894;SDS011;5500;49.886;8.074;2022-10-13T03:51:57;24.50;;;15.67;;
10894;SDS011;5500;49.886;8.074;2022-10-13T03:54:24;23.87;;;15.33;;
10894;SDS011;5500;49.886;8.074;2022-10-13T03:56:52;23.33;;;16.43;;
10894;SDS011;5500;49.886;8.074;2022-10-13T03:59:20;21.73;;;15.97;;
10894;SDS011;5500;49.886;8.074;2022-10-13T04:01:49;26.07;;;15.97;;
10894;SDS011;5500;49.886;8.074;2022-10-13T04:04:16;23.20;;;14.53;;
10894;SDS011;5500;49.886;8.074;2022-10-13T04:06:44;20.10;;;15.10;;
10894;SDS011;5500;49.886;8.074;2022-10-13T04:09:11;20.17;;;14.40;;
10894;SDS011;5500;49.886;8.074;2022-10-13T04:11:39;20.10;;;14.50;;
10894;SDS011;5500;49.886;8.074;2022-10-13T04:14:07;20.33;;;14.57;;
10894;SDS011;5500;49.886;8.074;2022-10-13T04:16:35;19.07;;;14.87;;
10894;SDS011;5500;49.886;8.074;2022-10-13T04:19:06;21.23;;;13.70;;
10894;SDS011;5500;49.886;8.074;2022-10-13T04:21:33;20.57;;;14.57;;
10894;SDS011;5500;49.886;8.074;2022-10-13T04:24:01;22.13;;;14.37;;
10894;SDS011;5500;49.886;8.074;2022-10-13T04:26:30;19.60;;;14.57;;
10894;SDS011;5500;49.886;8.074;2022-10-13T04:29:00;20.10;;;14.63;;
10894;SDS011;5500;49.886;8.074;2022-10-13T04:31:29;19.77;;;13.63;;
10894;SDS011;5500;49.886;8.074;2022-10-13T04:33:57;22.70;;;14.90;;
10894;SDS011;5500;49.886;8.074;2022-10-13T04:36:26;21.73;;;14.73;;
10894;SDS011;5500;49.886;8.074;2022-10-13T04:38:54;19.03;;;14.30;;
10894;SDS011;5500;49.886;8.074;2022-10-13T04:41:22;19.37;;;13.97;;
10894;SDS011;5500;49.886;8.074;2022-10-13T04:43:51;15.80;;;13.37;;
10894;SDS011;5500;49.886;8.074;2022-10-13T04:46:19;19.90;;;14.27;;
10894;SDS011;5500;49.886;8.074;2022-10-13T04:48:48;20.60;;;14.47;;
10894;SDS011;5500;49.886;8.074;2022-10-13T04:51:18;21.80;;;14.00;;
10894;SDS011;5500;49.886;8.074;2022-10-13T04:53:48;16.93;;;12.83;;
10894;SDS011;5500;49.886;8.074;2022-10-13T04:56:20;21.50;;;14.83;;
10894;SDS011;5500;49.886;8.074;2022-10-13T04:58:48;17.83;;;15.20;;
10894;SDS011;5500;49.886;8.074;2022-10-13T05:01:18;20.50;;;13.13;;
10894;SDS011;5500;49.886;8.074;2022-10-13T05:03:49;17.83;;;13.00;;
10894;SDS011;5500;49.886;8.074;2022-10-13T05:06:17;17.97;;;12.07;;
10894;SDS011;5500;49.886;8.074;2022-10-13T05:08:47;14.57;;;12.37;;
10894;SDS011;5500;49.886;8.074;2022-10-13T05:11:15;17.90;;;12.97;;
10894;SDS011;5500;49.886;8.074;2022-10-13T05:13:45;21.57;;;13.37;;
10894;SDS011;5500;49.886;8.074;2022-10-13T05:16:13;17.40;;;13.43;;
10894;SDS011;5500;49.886;8.074;2022-10-13T05:18:42;16.37;;;12.33;;
10894;SDS011;5500;49.886;8.074;2022-10-13T05:21:10;16.87;;;13.10;;
10894;SDS011;5500;49.886;8.074;2022-10-13T05:23:39;15.87;;;12.17;;
10894;SDS011;5500;49.886;8.074;2022-10-13T05:26:09;18.17;;;13.17;;
10894;SDS011;5500;49.886;8.074;2022-10-13T05:28:38;16.93;;;13.13;;
10894;SDS011;5500;49.886;8.074;2022-10-13T05:31:10;17.23;;;13.33;;
10894;SDS011;5500;49.886;8.074;2022-10-13T05:33:38;14.97;;;12.53;;
10894;SDS011;5500;49.886;8.074;2022-10-13T05:36:06;16.73;;;12.77;;
10894;SDS011;5500;49.886;8.074;2022-10-13T05:38:34;16.17;;;11.47;;
10894;SDS011;5500;49.886;8.074;2022-10-13T05:41:03;15.23;;;12.93;;
10894;SDS011;5500;49.886;8.074;2022-10-13T05:43:32;15.03;;;12.47;;
10894;SDS011;5500;49.886;8.074;2022-10-13T05:46:00;15.10;;;12.60;;
10894;SDS011;5500;49.886;8.074;2022-10-13T05:48:28;17.47;;;13.63;;
10894;SDS011;5500;49.886;8.074;2022-10-13T05:50:58;15.90;;;13.23;;
10894;SDS011;5500;49.886;8.074;2022-10-13T05:53:28;14.57;;;11.70;;
10894;SDS011;5500;49.886;8.074;2022-10-13T05:56:03;16.30;;;12.53;;
10894;SDS011;5500;49.886;8.074;2022-10-13T05:58:35;13.73;;;11.63;;
10894;SDS011;5500;49.886;8.074;2022-10-13T06:01:04;15.07;;;12.53;;
10894;SDS011;5500;49.886;8.074;2022-10-13T06:03:33;12.73;;;11.30;;
10894;SDS011;5500;49.886;8.074;2022-10-13T06:06:01;14.73;;;11.93;;
10894;SDS011;5500;49.886;8.074;2022-10-13T06:08:29;14.90;;;11.13;;
10894;SDS011;5500;49.886;8.074;2022-10-13T06:10:56;12.73;;;11.33;;
10894;SDS011;5500;49.886;8.074;2022-10-13T06:13:24;15.03;;;11.97;;
10894;SDS011;5500;49.886;8.074;2022-10-13T06:15:53;14.33;;;12.67;;
10894;SDS011;5500;49.886;8.074;2022-10-13T06:18:21;14.40;;;11.93;;
10894;SDS011;5500;49.886;8.074;2022-10-13T06:20:48;16.77;;;12.90;;
10894;SDS011;5500;49.886;8.074;2022-10-13T06:23:16;18.27;;;13.10;;
10894;SDS011;5500;49.886;8.074;2022-10-13T06:25:46;18.47;;;12.87;;
10894;SDS011;5500;49.886;8.074;2022-10-13T06:28:14;14.70;;;11.43;;
10894;SDS011;5500;49.886;8.074;2022-10-13T06:30:43;14.40;;;11.30;;
10894;SDS011;5500;49.886;8.074;2022-10-13T06:33:14;13.80;;;11.40;;
10894;SDS011;5500;49.886;8.074;2022-10-13T06:35:41;19.33;;;12.23;;
10894;SDS011;5500;49.886;8.074;2022-10-13T06:38:09;15.13;;;12.70;;
10894;SDS011;5500;49.886;8.074;2022-10-13T06:40:37;19.33;;;13.43;;
10894;SDS011;5500;49.886;8.074;2022-10-13T06:43:04;15.73;;;13.13;;
10894;SDS011;5500;49.886;8.074;2022-10-13T06:45:32;18.03;;;13.13;;
10894;SDS011;5500;49.886;8.074;2022-10-13T06:47:59;17.37;;;13.00;;
10894;SDS011;5500;49.886;8.074;2022-10-13T06:50:29;17.87;;;13.83;;
10894;SDS011;5500;49.886;8.074;2022-10-13T06:52:57;24.47;;;15.53;;
10894;SDS011;5500;49.886;8.074;2022-10-13T06:55:25;19.90;;;14.00;;
10894;SDS011;5500;49.886;8.074;2022-10-13T06:57:52;21.47;;;15.13;;
10894;SDS011;5500;49.886;8.074;2022-10-13T07:00:20;20.60;;;14.20;;
10894;SDS011;5500;49.886;8.074;2022-10-13T07:02:49;18.67;;;14.13;;
10894;SDS011;5500;49.886;8.074;2022-10-13T07:05:17;21.40;;;15.23;;
10894;SDS011;5500;49.886;8.074;2022-10-13T07:07:46;21.07;;;14.50;;
10894;SDS011;5500;49.886;8.074;2022-10-13T07:10:14;20.67;;;14.50;;
10894;SDS011;5500;49.886;8.074;2022-10-13T07:12:42;21.37;;;14.30;;
10894;SDS011;5500;49.886;8.074;2022-10-13T07:15:09;22.73;;;14.70;;
10894;SDS011;5500;49.886;8.074;2022-10-13T07:17:37;17.80;;;14.13;;
10894;SDS011;5500;49.886;8.074;2022-10-13T07:20:05;17.03;;;13.80;;
10894;SDS011;5500;49.886;8.074;2022-10-13T07:22:33;13.83;;;11.73;;
10894;SDS011;5500;49.886;8.074;2022-10-13T07:25:03;15.77;;;12.03;;
10894;SDS011;5500;49.886;8.074;2022-10-13T07:27:31;15.97;;;11.27;;
10894;SDS011;5500;49.886;8.074;2022-10-13T07:29:58;17.53;;;12.00;;
10894;SDS011;5500;49.886;8.074;2022-10-13T07:32:26;19.00;;;12.87;;
10894;SDS011;5500;49.886;8.074;2022-10-13T07:34:54;19.27;;;12.87;;
10894;SDS011;5500;49.886;8.074;2022-10-13T07:37:22;17.07;;;12.70;;
10894;SDS011;5500;49.886;8.074;2022-10-13T07:39:49;15.53;;;12.53;;
10894;SDS011;5500;49.886;8.074;2022-10-13T07:42:18;17.00;;;12.87;;
10894;SDS011;5500;49.886;8.074;2022-10-13T07:44:46;23.70;;;12.63;;
10894;SDS011;5500;49.886;8.074;2022-10-13T07:47:13;16.27;;;13.67;;
10894;SDS011;5500;49.886;8.074;2022-10-13T07:49:41;19.20;;;14.57;;
10894;SDS011;5500;49.886;8.074;2022-10-13T07:52:09;22.07;;;15.17;;
10894;SDS011;5500;49.886;8.074;2022-10-13T07:54:36;17.43;;;13.97;;
10894;SDS011;5500;49.886;8.074;2022-10-13T07:57:04;19.23;;;15.13;;
10894;SDS011;5500;49.886;8.074;2022-10-13T07:59:33;22.10;;;14.90;;
10894;SDS011;5500;49.886;8.074;2022-10-13T08:02:01;18.37;;;14.03;;
10894;SDS011;5500;49.886;8.074;2022-10-13T08:04:28;19.10;;;13.83;;
10894;SDS011;5500;49.886;8.074;2022-10-13T08:06:57;23.50;;;14.87;;
10894;SDS011;5500;49.886;8.074;2022-10-13T08:09:24;23.00;;;15.60;;
10894;SDS011;5500;49.886;8.074;2022-10-13T08:11:52;23.43;;;13.87;;
10894;SDS011;5500;49.886;8.074;2022-10-13T08:14:25;16.77;;;13.73;;
10894;SDS011;5500;49.886;8.074;2022-10-13T08:16:55;16.97;;;13.27;;
10894;SDS011;5500;49.886;8.074;2022-10-13T08:19:23;20.57;;;14.27;;
10894;SDS011;5500;49.886;8.074;2022-10-13T08:21:51;19.30;;;14.47;;
10894;SDS011;5500;49.886;8.074;2022-10-13T08:24:24;19.07;;;13.13;;
10894;SDS011;5500;49.886;8.074;2022-10-13T08:26:53;20.40;;;14.60;;
10894;SDS011;5500;49.886;8.074;2022-10-13T08:29:21;20.33;;;14.27;;
10894;SDS011;5500;49.886;8.074;2022-10-13T08:31:49;21.13;;;14.47;;
10894;SDS011;5500;49.886;8.074;2022-10-13T08:34:19;19.77;;;14.40;;
10894;SDS011;5500;49.886;8.074;2022-10-13T08:36:47;23.43;;;15.30;;
10894;SDS011;5500;49.886;8.074;2022-10-13T08:39:20;22.27;;;14.67;;
10894;SDS011;5500;49.886;8.074;2022-10-13T08:41:48;19.07;;;15.00;;
10894;SDS011;5500;49.886;8.074;2022-10-13T08:44:18;18.93;;;15.23;;
10894;SDS011;5500;49.886;8.074;2022-10-13T08:47:10;23.30;;;15.93;;
10894;SDS011;5500;49.886;8.074;2022-10-13T08:49:42;22.53;;;15.77;;
10894;SDS011;5500;49.886;8.074;2022-10-13T08:52:12;20.87;;;13.87;;
10894;SDS011;5500;49.886;8.074;2022-10-13T08:54:44;24.13;;;15.77;;
10894;SDS011;5500;49.886;8.074;2022-10-13T08:57:11;21.67;;;15.63;;
10894;SDS011;5500;49.886;8.074;2022-10-13T08:59:39;18.97;;;15.30;;
10894;SDS011;5500;49.886;8.074;2022-10-13T09:02:10;18.07;;;14.30;;
10894;SDS011;5500;49.886;8.074;2022-10-13T09:04:39;19.83;;;14.50;;
10894;SDS011;5500;49.886;8.074;2022-10-13T09:07:11;20.13;;;13.97;;
10894;SDS011;5500;49.886;8.074;2022-10-13T09:09:41;17.10;;;13.67;;
10894;SDS011;5500;49.886;8.074;2022-10-13T09:12:09;18.17;;;14.33;;
10894;SDS011;5500;49.886;8.074;2022-10-13T09:14:37;19.93;;;13.97;;
10894;SDS011;5500;49.886;8.074;2022-10-13T09:17:13;20.43;;;13.97;;
10894;SDS011;5500;49.886;8.074;2022-10-13T09:19:42;20.97;;;13.87;;
10894;SDS011;5500;49.886;8.074;2022-10-13T09:22:23;17.80;;;13.30;;
10894;SDS011;5500;49.886;8.074;2022-10-13T09:27:50;21.87;;;13.83;;
10894;SDS011;5500;49.886;8.074;2022-10-13T09:30:23;17.40;;;14.10;;
10894;SDS011;5500;49.886;8.074;2022-10-13T09:33:13;18.97;;;14.77;;
10894;SDS011;5500;49.886;8.074;2022-10-13T09:35:43;17.30;;;13.47;;
10894;SDS011;5500;49.886;8.074;2022-10-13T09:38:14;19.20;;;14.50;;
10894;SDS011;5500;49.886;8.074;2022-10-13T09:40:42;21.03;;;14.87;;
10894;SDS011;5500;49.886;8.074;2022-10-13T09:43:19;18.37;;;14.33;;
10894;SDS011;5500;49.886;8.074;2022-10-13T09:45:54;20.07;;;14.07;;
10894;SDS011;5500;49.886;8.074;2022-10-13T09:48:24;19.23;;;14.37;;
10894;SDS011;5500;49.886;8.074;2022-10-13T09:50:55;17.70;;;14.37;;
10894;SDS011;5500;49.886;8.074;2022-10-13T09:53:27;21.57;;;15.27;;
10894;SDS011;5500;49.886;8.074;2022-10-13T09:56:07;21.37;;;14.07;;
10894;SDS011;5500;49.886;8.074;2022-10-13T09:58:40;20.27;;;14.67;;
10894;SDS011;5500;49.886;8.074;2022-10-13T10:01:15;18.43;;;13.97;;
10894;SDS011;5500;49.886;8.074;2022-10-13T10:03:47;22.10;;;14.17;;
10894;SDS011;5500;49.886;8.074;2022-10-13T10:06:15;21.90;;;15.07;;
10894;SDS011;5500;49.886;8.074;2022-10-13T10:08:50;22.93;;;15.70;;
10894;SDS011;5500;49.886;8.074;2022-10-13T10:11:30;25.93;;;15.47;;
10894;SDS011;5500;49.886;8.074;2022-10-13T10:14:01;23.00;;;14.13;;
10894;SDS011;5500;49.886;8.074;2022-10-13T10:16:39;22.90;;;15.40;;
10894;SDS011;5500;49.886;8.074;2022-10-13T10:19:12;20.90;;;14.80;;
10894;SDS011;5500;49.886;8.074;2022-10-13T10:21:45;23.37;;;15.90;;
10894;SDS011;5500;49.886;8.074;2022-10-13T10:24:18;23.77;;;17.47;;
10894;SDS011;5500;49.886;8.074;2022-10-13T10:26:51;25.53;;;18.97;;
10894;SDS011;5500;49.886;8.074;2022-10-13T10:29:25;26.47;;;19.10;;
10894;SDS011;5500;49.886;8.074;2022-10-13T10:32:02;27.93;;;19.73;;
10894;SDS011;5500;49.886;8.074;2022-10-13T10:34:34;23.43;;;17.97;;
10894;SDS011;5500;49.886;8.074;2022-10-13T10:37:09;26.37;;;17.17;;
10894;SDS011;5500;49.886;8.074;2022-10-13T10:39:45;22.80;;;16.63;;
10894;SDS011;5500;49.886;8.074;2022-10-13T10:42:19;29.30;;;17.90;;
10894;SDS011;5500;49.886;8.074;2022-10-13T10:45:01;22.07;;;16.50;;
10894;SDS011;5500;49.886;8.074;2022-10-13T10:47:32;26.40;;;18.10;;
10894;SDS011;5500;49.886;8.074;2022-10-13T10:50:04;27.70;;;17.50;;
10894;SDS011;5500;49.886;8.074;2022-10-13T10:52:35;23.77;;;18.10;;
10894;SDS011;5500;49.886;8.074;2022-10-13T10:55:13;33.97;;;19.10;;
10894;SDS011;5500;49.886;8.074;2022-10-13T10:57:54;25.03;;;17.03;;
10894;SDS011;5500;49.886;8.074;2022-10-13T11:00:28;28.27;;;18.43;;
10894;SDS011;5500;49.886;8.074;2022-10-13T11:02:58;31.60;;;19.03;;
10894;SDS011;5500;49.886;8.074;2022-10-13T11:08:25;34.93;;;20.20;;
10894;SDS011;5500;49.886;8.074;2022-10-13T11:17:09;26.43;;;19.47;;
10894;SDS011;5500;49.886;8.074;2022-10-13T11:19:42;29.07;;;19.37;;
10894;SDS011;5500;49.886;8.074;2022-10-13T11:22:14;24.07;;;17.70;;
10894;SDS011;5500;49.886;8.074;2022-10-13T11:24:52;31.00;;;20.10;;
10894;SDS011;5500;49.886;8.074;2022-10-13T11:27:36;28.60;;;19.23;;
10894;SDS011;5500;49.886;8.074;2022-10-13T11:30:07;29.73;;;18.50;;
10894;SDS011;5500;49.886;8.074;2022-10-13T11:38:59;28.27;;;17.83;;
10894;SDS011;5500;49.886;8.074;2022-10-13T11:41:34;29.87;;;18.00;;
10894;SDS011;5500;49.886;8.074;2022-10-13T11:44:11;22.27;;;17.03;;
10894;SDS011;5500;49.886;8.074;2022-10-13T11:46:48;24.10;;;16.37;;
10894;SDS011;5500;49.886;8.074;2022-10-13T11:49:28;19.03;;;13.70;;
10894;SDS011;5500;49.886;8.074;2022-10-13T11:52:16;22.77;;;14.20;;
10894;SDS011;5500;49.886;8.074;2022-10-13T11:54:52;17.37;;;12.63;;
10894;SDS011;5500;49.886;8.074;2022-10-13T11:57:22;18.87;;;13.23;;
10894;SDS011;5500;49.886;8.074;2022-10-13T11:59:53;16.57;;;10.27;;
10894;SDS011;5500;49.886;8.074;2022-10-13T12:02:23;12.70;;;9.63;;
10894;SDS011;5500;49.886;8.074;2022-10-13T12:04:59;15.07;;;10.53;;
10894;SDS011;5500;49.886;8.074;2022-10-13T12:07:30;15.47;;;9.47;;
10894;SDS011;5500;49.886;8.074;2022-10-13T12:09:59;17.33;;;9.73;;
10894;SDS011;5500;49.886;8.074;2022-10-13T12:12:30;14.20;;;9.90;;
10894;SDS011;5500;49.886;8.074;2022-10-13T12:14:59;26.33;;;15.30;;
10894;SDS011;5500;49.886;8.074;2022-10-13T12:17:32;22.30;;;16.17;;
10894;SDS011;5500;49.886;8.074;2022-10-13T12:20:17;23.47;;;13.93;;
10894;SDS011;5500;49.886;8.074;2022-10-13T12:22:46;12.77;;;9.57;;
10894;SDS011;5500;49.886;8.074;2022-10-13T12:25:15;15.50;;;9.30;;
10894;SDS011;5500;49.886;8.074;2022-10-13T12:27:45;11.73;;;9.00;;
10894;SDS011;5500;49.886;8.074;2022-10-13T12:30:20;12.53;;;8.67;;
10894;SDS011;5500;49.886;8.074;2022-10-13T12:32:49;13.67;;;9.67;;
10894;SDS011;5500;49.886;8.074;2022-10-13T12:35:18;13.90;;;8.70;;
10894;SDS011;5500;49.886;8.074;2022-10-13T12:37:47;12.27;;;9.37;;
10894;SDS011;5500;49.886;8.074;2022-10-13T12:40:15;12.93;;;9.20;;
10894;SDS011;5500;49.886;8.074;2022-10-13T12:42:43;14.73;;;9.57;;
10894;SDS011;5500;49.886;8.074;2022-10-13T12:45:13;15.07;;;9.57;;
10894;SDS011;5500;49.886;8.074;2022-10-13T12:47:49;14.37;;;10.37;;
10894;SDS011;5500;49.886;8.074;2022-10-13T12:50:34;15.80;;;11.80;;
10894;SDS011;5500;49.886;8.074;2022-10-13T12:55:48;21.73;;;12.57;;
10894;SDS011;5500;49.886;8.074;2022-10-13T12:58:19;19.90;;;14.13;;
10894;SDS011;5500;49.886;8.074;2022-10-13T13:01:08;25.53;;;16.37;;
10894;SDS011;5500;49.886;8.074;2022-10-13T13:03:53;22.80;;;15.03;;
10894;SDS011;5500;49.886;8.074;2022-10-13T13:06:25;15.60;;;10.53;;
10894;SDS011;5500;49.886;8.074;2022-10-13T13:12:02;17.17;;;11.40;;
10894;SDS011;5500;49.886;8.074;2022-10-13T13:14:35;19.60;;;12.27;;
10894;SDS011;5500;49.886;8.074;2022-10-13T13:17:04;18.57;;;11.80;;
10894;SDS011;5500;49.886;8.074;2022-10-13T13:19:35;15.33;;;11.00;;
10894;SDS011;5500;49.886;8.074;2022-10-13T13:22:03;16.40;;;11.70;;
10894;SDS011;5500;49.886;8.074;2022-10-13T13:24:31;16.47;;;12.00;;
10894;SDS011;5500;49.886;8.074;2022-10-13T13:27:10;18.83;;;13.00;;
10894;SDS011;5500;49.886;8.074;2022-10-13T13:29:42;20.30;;;11.57;;
10894;SDS011;5500;49.886;8.074;2022-10-13T13:32:10;16.70;;;9.80;;
10894;SDS011;5500;49.886;8.074;2022-10-13T13:34:40;13.60;;;9.03;;
10894;SDS011;5500;49.886;8.074;2022-10-13T13:37:10;12.23;;;7.80;;
10894;SDS011;5500;49.886;8.074;2022-10-13T13:39:39;15.27;;;8.53;;
10894;SDS011;5500;49.886;8.074;2022-10-13T13:42:10;13.43;;;7.77;;
10894;SDS011;5500;49.886;8.074;2022-10-13T13:44:39;8.37;;;6.90;;
10894;SDS011;5500;49.886;8.074;2022-10-13T13:47:10;11.93;;;8.57;;
10894;SDS011;5500;49.886;8.074;2022-10-13T13:49:42;10.67;;;8.80;;
10894;SDS011;5500;49.886;8.074;2022-10-13T13:52:10;11.33;;;7.70;;
10894;SDS011;5500;49.886;8.074;2022-10-13T13:54:38;12.53;;;7.70;;
10894;SDS011;5500;49.886;8.074;2022-10-13T13:57:05;13.03;;;7.60;;
10894;SDS011;5500;49.886;8.074;2022-10-13T13:59:33;12.00;;;7.97;;
10894;SDS011;5500;49.886;8.074;2022-10-13T14:02:01;15.73;;;8.40;;
10894;SDS011;5500;49.886;8.074;2022-10-13T14:04:29;13.73;;;7.93;;
10894;SDS011;5500;49.886;8.074;2022-10-13T14:06:58;11.20;;;7.73;;
10894;SDS011;5500;49.886;8.074;2022-10-13T14:09:26;15.37;;;8.67;;
10894;SDS011;5500;49.886;8.074;2022-10-13T14:11:54;10.10;;;8.40;;
10894;SDS011;5500;49.886;8.074;2022-10-13T14:14:21;12.43;;;7.80;;
10894;SDS011;5500;49.886;8.074;2022-10-13T14:16:49;13.57;;;7.87;;
10894;SDS011;5500;49.886;8.074;2022-10-13T14:19:16;12.27;;;7.80;;
10894;SDS011;5500;49.886;8.074;2022-10-13T14:21:44;12.77;;;7.17;;
10894;SDS011;5500;49.886;8.074;2022-10-13T14:24:13;9.73;;;7.47;;
10894;SDS011;5500;49.886;8.074;2022-10-13T14:26:41;11.37;;;7.37;;
10894;SDS011;5500;49.886;8.074;2022-10-13T14:29:08;13.80;;;8.30;;
10894;SDS011;5500;49.886;8.074;2022-10-13T14:31:36;13.87;;;7.40;;
10894;SDS011;5500;49.886;8.074;2022-10-13T14:34:03;8.80;;;6.90;;
10894;SDS011;5500;49.886;8.074;2022-10-13T14:36:31;12.87;;;8.33;;
10894;SDS011;5500;49.886;8.074;2022-10-13T14:38:59;11.87;;;8.23;;
10894;SDS011;5500;49.886;8.074;2022-10-13T14:41:28;11.07;;;7.47;;
10894;SDS011;5500;49.886;8.074;2022-10-13T14:43:55;12.60;;;8.03;;
10894;SDS011;5500;49.886;8.074;2022-10-13T14:46:23;13.07;;;7.53;;
10894;SDS011;5500;49.886;8.074;2022-10-13T14:48:51;11.50;;;8.57;;
10894;SDS011;5500;49.886;8.074;2022-10-13T14:51:18;10.07;;;7.80;;
10894;SDS011;5500;49.886;8.074;2022-10-13T14:53:46;12.87;;;8.40;;
10894;SDS011;5500;49.886;8.074;2022-10-13T14:56:15;15.37;;;8.60;;
10894;SDS011;5500;49.886;8.074;2022-10-13T14:58:45;15.43;;;8.83;;
10894;SDS011;5500;49.886;8.074;2022-10-13T15:01:14;13.27;;;8.80;;
10894;SDS011;5500;49.886;8.074;2022-10-13T15:03:41;12.53;;;8.87;;
10894;SDS011;5500;49.886;8.074;2022-10-13T15:06:10;14.00;;;8.97;;
10894;SDS011;5500;49.886;8.074;2022-10-13T15:08:39;16.30;;;9.57;;
10894;SDS011;5500;49.886;8.074;2022-10-13T15:11:07;15.67;;;10.60;;
10894;SDS011;5500;49.886;8.074;2022-10-13T15:13:35;15.70;;;11.17;;
10894;SDS011;5500;49.886;8.074;2022-10-13T15:16:04;17.10;;;11.63;;
10894;SDS011;5500;49.886;8.074;2022-10-13T15:18:33;17.93;;;10.33;;
10894;SDS011;5500;49.886;8.074;2022-10-13T15:21:01;16.70;;;10.73;;